Airfield :
LOGIN :

Register | Disclaimer

   EN    FR    IT 

 










Legend :    VFR   Marginal VFR   IFR   Intensive IFR   Very Intensive IFR
Visi :
Ceiling :
>= 8 km
>= 3000ft
5 to 8 km
1000 to 3000 ft
1500m to 5 km
500 to 1000 ft
800 to 1500m
200 to 500 ft
< 800m
< 200 ft
Symbols :   Thunderstorms  Fog  Heavy snow  Heavy precipitations  Wind > 20 kt
SIGMETs :     Misc.  Thunderstorms  Icing  Turbulence  Mountain Waves  Volcanic Ashes






- Airport Elevation : 52 ft
- IATA code : RNN


EKRN - Bornholm Ronne

CURRENT METAR :
  • 241150Z AUTO 27013KT 9999 BKN019/// 05/02 Q1012

EXPIRED METARs :
  • 241120Z AUTO 28012KT 9999 BKN021/// 06/02 Q1012
  • 241050Z AUTO 28013KT 9999 BKN022/// 06/02 Q1012
  • 241020Z AUTO 29014KT 9999 SCT022/// 05/02 Q1013
  • 240950Z AUTO 29014KT 9999 FEW022/// 05/02 Q1012
  • 240920Z AUTO 30017KT 9999 SCT020/// 05/01 Q1012
  • 240850Z AUTO 30019KT 9999 SCT017/// 05/02 Q1012

TAF TAF EKRN
Valid from the 24 at 12:00 until the 24 at 21:00 UTC


241121Z 2412/2421 24012KT 9999 BKN020
TEMPO 2419/2421 BKN012



MET'MAP, your aeronautical weather chart ! - Copyright ORBIFLY December 2007 - Disclaimer

ORBIFLY MET'MAP TEAM :

Programming & Development : Alexandra Zaïnal
Concept & original design : Baudouin d'Aumeries
Assistance for programming : Marc-Olivier Méhu
Technical & hardware support : Manuel Goepfert

Contact : metmap@orbifly.com




SOURCES & CREDITS :

   NOAA